Atlantic Horizon — C6XI2 — position and weather

sailwx.info

Track history (hours):
 
Tides and Currents Weather Stations Pressure Air Temp Water Temp Dewpoint Dewpoint Depression Visibility Wind Speed Wind Dir Waves Ship Positions

Atlantic Horizon

Last reported at 2018-Jan-22 05:41 UTC. Time now 2018-Jan-24 02:02 UTC.
Position N 36°18' E 014°49'.

Length 224 m; draft 7.1 m.

Type: Cargo ship. MMSI: 310968322.

Date/timePositionNaut miles runAvg speedWind from/ knotsBaromVisibWave heightAir tempDewpointWater temp
2018-Jan-22 05:41N 36°18' E 014°49'611.4
2018-Jan-22 05:11N 36°20' E 014°42'211.4
2018-Jan-22 05:00N 36°21' E 014°40'611.3
2018-Jan-22 04:30N 36°22' E 014°33'611.1
2018-Jan-22 04:00N 36°24' E 014°26'610.8
2018-Jan-22 03:29N 36°25' E 014°20'511.1
2018-Jan-22 03:00N 36°27' E 014°13'610.9
2018-Jan-22 02:29N 36°28' E 014°07'511.0
2018-Jan-22 02:00N 36°30' E 014°00'511.0
2018-Jan-22 01:30N 36°31' E 013°54'  
2018-Jan-18 17:24N 36°01' W 005°00'512.1
2018-Jan-18 17:00N 36°00' W 005°06'612.4
2018-Jan-18 16:30N 35°59' W 005°13'611.9
2018-Jan-18 16:00N 35°59' W 005°21'611.1
2018-Jan-18 15:30N 35°58' W 005°27'510.5
2018-Jan-18 15:00N 35°56' W 005°34'5 9.5
2018-Jan-18 14:30N 35°55' W 005°39'4 8.2
2018-Jan-18 14:00N 35°55' W 005°44'5 8.6
2018-Jan-18 13:29N 35°54' W 005°50'  
Track history (hours):
 
Tides and Currents Weather Stations Pressure Air Temp Water Temp Dewpoint Dewpoint Depression Visibility Wind Speed Wind Dir Waves Ship Positions

Atlantic Horizon

Last reported at 2018-Jan-22 05:41 UTC. Time now 2018-Jan-24 02:02 UTC.
Position N 36°18' E 014°49'.

Length 224 m; draft 7.1 m.

Type: Cargo ship. MMSI: 310968322.

Date/timePositionNaut miles runAvg speedWind from/ knotsBaromVisibWave heightAir tempDewpointWater temp
2018-Jan-22 05:41N 36°18' E 014°49'611.4
2018-Jan-22 05:11N 36°20' E 014°42'211.4
2018-Jan-22 05:00N 36°21' E 014°40'611.3
2018-Jan-22 04:30N 36°22' E 014°33'611.1
2018-Jan-22 04:00N 36°24' E 014°26'610.8
2018-Jan-22 03:29N 36°25' E 014°20'511.1
2018-Jan-22 03:00N 36°27' E 014°13'610.9
2018-Jan-22 02:29N 36°28' E 014°07'511.0
2018-Jan-22 02:00N 36°30' E 014°00'511.0
2018-Jan-22 01:30N 36°31' E 013°54'  
2018-Jan-18 17:24N 36°01' W 005°00'512.1
2018-Jan-18 17:00N 36°00' W 005°06'612.4
2018-Jan-18 16:30N 35°59' W 005°13'611.9
2018-Jan-18 16:00N 35°59' W 005°21'611.1
2018-Jan-18 15:30N 35°58' W 005°27'510.5
2018-Jan-18 15:00N 35°56' W 005°34'5 9.5
2018-Jan-18 14:30N 35°55' W 005°39'4 8.2
2018-Jan-18 14:00N 35°55' W 005°44'5 8.6
2018-Jan-18 13:29N 35°54' W 005°50'  

Dump ship's entire track history